aviador You're here:

KSLE Decoded Metar

SALEM in OR, USA
Report Time2018-07-19 18:56:00
UTC Time2018-07-19 19:16:45
Flight Rules vfr VFR
Wind340° at 06 kt
W.Decomp.*RWY 31: 5.8 kt HW 1.3 kt RCW
RWY 34: 5.7 kt HW 1.8 kt LCW
W.Rank340° ranks 5
Current wind is above 340° avg. (5.5)
Visibility9999 m
Phenomena:N/A
Clouds:Overcast 035 Hf
Expected CloudBase > 4,000 ft AGL from Temp-Dew spread
Ceiling3,500 ft
Temp19°C (ISA +4)
Dew Point09°C (52% RH)
AAT16.6°C
QNH1023 hPa
Density Alt528 ft
Elevation194 ft
Report Wrong Elevation
Raw Report
KSLE 191856Z 34006KT 10SM OVC035 19/09 A3020 RMK AO2 SLP224
T01890094=

Extra information for KSLE:More info

Metar Taf Metar & Taf Last 4 Metars F.Rules Stats Wind Profile Meteogram Temp Stats Airport Information Weather charts Add Link Nearby VenuesMetar ALERT Operation Metar Decoded Social comments

AIRNAV info for KSLE